sensor_id;sensor_type;location;lat;lon;timestamp;P1;durP1;ratioP1;P2;durP2;ratioP2
18174;SDS011;9212;50.894;16.714;2023-08-08T00:01:17;4.27;;;1.40;;
18174;SDS011;9212;50.894;16.714;2023-08-08T00:03:45;4.23;;;1.50;;
18174;SDS011;9212;50.894;16.714;2023-08-08T00:06:12;3.53;;;1.57;;
18174;SDS011;9212;50.894;16.714;2023-08-08T00:08:40;2.93;;;1.30;;
18174;SDS011;9212;50.894;16.714;2023-08-08T00:11:07;3.53;;;1.50;;
18174;SDS011;9212;50.894;16.714;2023-08-08T00:13:34;6.83;;;1.30;;
18174;SDS011;9212;50.894;16.714;2023-08-08T00:16:01;4.90;;;1.50;;
18174;SDS011;9212;50.894;16.714;2023-08-08T00:18:30;3.77;;;1.50;;
18174;SDS011;9212;50.894;16.714;2023-08-08T00:20:58;3.23;;;1.30;;
18174;SDS011;9212;50.894;16.714;2023-08-08T00:23:25;6.90;;;1.37;;
18174;SDS011;9212;50.894;16.714;2023-08-08T00:25:53;4.27;;;1.57;;
18174;SDS011;9212;50.894;16.714;2023-08-08T00:28:20;2.70;;;1.30;;
18174;SDS011;9212;50.894;16.714;2023-08-08T00:30:47;5.20;;;1.70;;
18174;SDS011;9212;50.894;16.714;2023-08-08T00:33:15;4.87;;;1.50;;
18174;SDS011;9212;50.894;16.714;2023-08-08T00:35:43;5.47;;;1.40;;
18174;SDS011;9212;50.894;16.714;2023-08-08T00:38:12;2.80;;;1.70;;
18174;SDS011;9212;50.894;16.714;2023-08-08T00:40:39;4.30;;;1.40;;
18174;SDS011;9212;50.894;16.714;2023-08-08T00:43:06;3.13;;;1.17;;
18174;SDS011;9212;50.894;16.714;2023-08-08T00:45:34;2.23;;;1.17;;
18174;SDS011;9212;50.894;16.714;2023-08-08T00:48:01;2.77;;;1.30;;
18174;SDS011;9212;50.894;16.714;2023-08-08T00:50:28;1.30;;;1.10;;
18174;SDS011;9212;50.894;16.714;2023-08-08T00:52:55;6.53;;;1.30;;
18174;SDS011;9212;50.894;16.714;2023-08-08T00:55:24;7.80;;;1.30;;
18174;SDS011;9212;50.894;16.714;2023-08-08T00:57:52;7.23;;;1.50;;
18174;SDS011;9212;50.894;16.714;2023-08-08T01:00:19;3.53;;;1.60;;
18174;SDS011;9212;50.894;16.714;2023-08-08T01:02:46;2.30;;;1.20;;
18174;SDS011;9212;50.894;16.714;2023-08-08T01:05:14;4.97;;;1.73;;
18174;SDS011;9212;50.894;16.714;2023-08-08T01:07:42;3.00;;;1.30;;
18174;SDS011;9212;50.894;16.714;2023-08-08T01:10:14;12.20;;;1.60;;
18174;SDS011;9212;50.894;16.714;2023-08-08T01:12:45;3.87;;;1.43;;
18174;SDS011;9212;50.894;16.714;2023-08-08T01:15:16;4.23;;;1.30;;
18174;SDS011;9212;50.894;16.714;2023-08-08T01:17:44;2.23;;;1.40;;
18174;SDS011;9212;50.894;16.714;2023-08-08T01:20:13;2.47;;;1.20;;
18174;SDS011;9212;50.894;16.714;2023-08-08T01:22:43;2.80;;;1.40;;
18174;SDS011;9212;50.894;16.714;2023-08-08T01:25:18;3.10;;;1.50;;
18174;SDS011;9212;50.894;16.714;2023-08-08T01:27:46;4.17;;;1.53;;
18174;SDS011;9212;50.894;16.714;2023-08-08T01:30:13;6.27;;;1.50;;
18174;SDS011;9212;50.894;16.714;2023-08-08T01:32:40;3.67;;;1.60;;
18174;SDS011;9212;50.894;16.714;2023-08-08T01:35:08;4.20;;;1.53;;
18174;SDS011;9212;50.894;16.714;2023-08-08T01:37:36;2.77;;;1.20;;
18174;SDS011;9212;50.894;16.714;2023-08-08T01:40:11;2.83;;;1.27;;
18174;SDS011;9212;50.894;16.714;2023-08-08T01:42:42;3.17;;;1.40;;
18174;SDS011;9212;50.894;16.714;2023-08-08T01:45:13;5.70;;;1.80;;
18174;SDS011;9212;50.894;16.714;2023-08-08T01:47:40;4.70;;;1.53;;
18174;SDS011;9212;50.894;16.714;2023-08-08T01:50:08;2.97;;;1.67;;
18174;SDS011;9212;50.894;16.714;2023-08-08T01:52:35;4.37;;;1.67;;
18174;SDS011;9212;50.894;16.714;2023-08-08T01:55:03;5.27;;;1.50;;
18174;SDS011;9212;50.894;16.714;2023-08-08T01:57:30;7.03;;;1.60;;
18174;SDS011;9212;50.894;16.714;2023-08-08T02:00:02;3.23;;;1.70;;
18174;SDS011;9212;50.894;16.714;2023-08-08T02:02:30;4.77;;;1.50;;
18174;SDS011;9212;50.894;16.714;2023-08-08T02:04:58;9.63;;;1.90;;
18174;SDS011;9212;50.894;16.714;2023-08-08T02:07:25;3.63;;;1.30;;
18174;SDS011;9212;50.894;16.714;2023-08-08T02:09:52;5.70;;;1.30;;
18174;SDS011;9212;50.894;16.714;2023-08-08T02:12:20;7.13;;;1.57;;
18174;SDS011;9212;50.894;16.714;2023-08-08T02:14:47;6.27;;;1.43;;
18174;SDS011;9212;50.894;16.714;2023-08-08T02:17:17;2.40;;;1.13;;
18174;SDS011;9212;50.894;16.714;2023-08-08T02:19:44;4.97;;;1.30;;
18174;SDS011;9212;50.894;16.714;2023-08-08T02:22:11;4.30;;;1.40;;
18174;SDS011;9212;50.894;16.714;2023-08-08T02:24:38;2.03;;;1.40;;
18174;SDS011;9212;50.894;16.714;2023-08-08T02:27:05;3.93;;;1.43;;
18174;SDS011;9212;50.894;16.714;2023-08-08T02:29:33;4.00;;;1.10;;
18174;SDS011;9212;50.894;16.714;2023-08-08T02:32:00;3.83;;;1.40;;
18174;SDS011;9212;50.894;16.714;2023-08-08T02:34:29;2.00;;;1.40;;
18174;SDS011;9212;50.894;16.714;2023-08-08T02:36:56;4.33;;;1.43;;
18174;SDS011;9212;50.894;16.714;2023-08-08T02:39:23;4.77;;;1.63;;
18174;SDS011;9212;50.894;16.714;2023-08-08T02:41:51;1.93;;;1.43;;
18174;SDS011;9212;50.894;16.714;2023-08-08T02:44:18;3.63;;;1.30;;
18174;SDS011;9212;50.894;16.714;2023-08-08T02:46:45;4.40;;;1.60;;
18174;SDS011;9212;50.894;16.714;2023-08-08T02:49:12;3.03;;;1.60;;
18174;SDS011;9212;50.894;16.714;2023-08-08T02:51:41;3.90;;;1.40;;
18174;SDS011;9212;50.894;16.714;2023-08-08T02:54:08;3.93;;;1.70;;
18174;SDS011;9212;50.894;16.714;2023-08-08T02:56:35;3.33;;;1.30;;
18174;SDS011;9212;50.894;16.714;2023-08-08T02:59:02;5.18;;;1.58;;
18174;SDS011;9212;50.894;16.714;2023-08-08T03:01:30;4.00;;;1.60;;
18174;SDS011;9212;50.894;16.714;2023-08-08T03:03:57;3.80;;;1.77;;
18174;SDS011;9212;50.894;16.714;2023-08-08T03:06:24;5.43;;;1.58;;
18174;SDS011;9212;50.894;16.714;2023-08-08T03:08:53;1.70;;;1.47;;
18174;SDS011;9212;50.894;16.714;2023-08-08T03:11:20;1.90;;;1.23;;
18174;SDS011;9212;50.894;16.714;2023-08-08T03:13:47;4.07;;;1.40;;
18174;SDS011;9212;50.894;16.714;2023-08-08T03:16:15;4.00;;;1.50;;
18174;SDS011;9212;50.894;16.714;2023-08-08T03:18:42;3.60;;;1.10;;
18174;SDS011;9212;50.894;16.714;2023-08-08T03:21:09;5.20;;;1.30;;
18174;SDS011;9212;50.894;16.714;2023-08-08T03:23:36;1.63;;;1.13;;
18174;SDS011;9212;50.894;16.714;2023-08-08T03:26:05;1.40;;;1.20;;
18174;SDS011;9212;50.894;16.714;2023-08-08T03:28:32;4.70;;;1.30;;
18174;SDS011;9212;50.894;16.714;2023-08-08T03:30:59;2.87;;;1.57;;
18174;SDS011;9212;50.894;16.714;2023-08-08T03:33:28;2.27;;;1.40;;
18174;SDS011;9212;50.894;16.714;2023-08-08T03:35:55;1.40;;;1.20;;
18174;SDS011;9212;50.894;16.714;2023-08-08T03:38:22;4.77;;;1.43;;
18174;SDS011;9212;50.894;16.714;2023-08-08T03:40:50;4.73;;;1.40;;
18174;SDS011;9212;50.894;16.714;2023-08-08T03:43:18;3.90;;;1.37;;
18174;SDS011;9212;50.894;16.714;2023-08-08T03:45:45;5.30;;;1.70;;
18174;SDS011;9212;50.894;16.714;2023-08-08T03:48:12;4.27;;;1.50;;
18174;SDS011;9212;50.894;16.714;2023-08-08T03:50:40;3.50;;;1.40;;
18174;SDS011;9212;50.894;16.714;2023-08-08T03:53:07;2.30;;;1.60;;
18174;SDS011;9212;50.894;16.714;2023-08-08T03:55:34;2.37;;;1.30;;
18174;SDS011;9212;50.894;16.714;2023-08-08T03:58:01;1.30;;;1.20;;
18174;SDS011;9212;50.894;16.714;2023-08-08T04:00:30;1.80;;;1.40;;
18174;SDS011;9212;50.894;16.714;2023-08-08T04:02:58;3.67;;;1.40;;
18174;SDS011;9212;50.894;16.714;2023-08-08T04:05:25;1.40;;;1.30;;
18174;SDS011;9212;50.894;16.714;2023-08-08T04:07:52;1.40;;;1.30;;
18174;SDS011;9212;50.894;16.714;2023-08-08T04:10:20;2.13;;;1.20;;
18174;SDS011;9212;50.894;16.714;2023-08-08T04:12:47;2.93;;;1.40;;
18174;SDS011;9212;50.894;16.714;2023-08-08T04:15:15;3.07;;;1.73;;
18174;SDS011;9212;50.894;16.714;2023-08-08T04:17:44;2.47;;;1.00;;
18174;SDS011;9212;50.894;16.714;2023-08-08T04:20:11;1.60;;;1.10;;
18174;SDS011;9212;50.894;16.714;2023-08-08T04:22:39;1.77;;;1.20;;
18174;SDS011;9212;50.894;16.714;2023-08-08T04:25:06;2.33;;;1.30;;
18174;SDS011;9212;50.894;16.714;2023-08-08T04:27:34;6.77;;;1.37;;
18174;SDS011;9212;50.894;16.714;2023-08-08T04:30:02;1.83;;;1.10;;
18174;SDS011;9212;50.894;16.714;2023-08-08T04:32:29;3.00;;;1.50;;
18174;SDS011;9212;50.894;16.714;2023-08-08T04:34:58;1.33;;;1.10;;
18174;SDS011;9212;50.894;16.714;2023-08-08T04:37:25;1.27;;;1.17;;
18174;SDS011;9212;50.894;16.714;2023-08-08T04:39:53;3.33;;;1.40;;
18174;SDS011;9212;50.894;16.714;2023-08-08T04:42:20;9.93;;;1.83;;
18174;SDS011;9212;50.894;16.714;2023-08-08T04:44:47;2.03;;;1.30;;
18174;SDS011;9212;50.894;16.714;2023-08-08T04:47:14;1.20;;;1.10;;
18174;SDS011;9212;50.894;16.714;2023-08-08T04:49:41;2.73;;;1.20;;
18174;SDS011;9212;50.894;16.714;2023-08-08T04:52:10;1.90;;;1.40;;
18174;SDS011;9212;50.894;16.714;2023-08-08T04:54:37;2.70;;;1.40;;
18174;SDS011;9212;50.894;16.714;2023-08-08T04:57:04;3.50;;;1.60;;
18174;SDS011;9212;50.894;16.714;2023-08-08T04:59:32;1.23;;;1.10;;
18174;SDS011;9212;50.894;16.714;2023-08-08T05:01:59;1.33;;;1.23;;
18174;SDS011;9212;50.894;16.714;2023-08-08T05:04:26;2.10;;;1.63;;
18174;SDS011;9212;50.894;16.714;2023-08-08T05:06:53;3.97;;;1.67;;
18174;SDS011;9212;50.894;16.714;2023-08-08T05:09:22;8.07;;;1.43;;
18174;SDS011;9212;50.894;16.714;2023-08-08T05:11:51;1.90;;;1.33;;
18174;SDS011;9212;50.894;16.714;2023-08-08T05:14:19;1.53;;;1.43;;
18174;SDS011;9212;50.894;16.714;2023-08-08T05:16:46;3.20;;;1.23;;
18174;SDS011;9212;50.894;16.714;2023-08-08T05:19:13;6.87;;;1.43;;
18174;SDS011;9212;50.894;16.714;2023-08-08T05:21:40;4.83;;;1.53;;
18174;SDS011;9212;50.894;16.714;2023-08-08T05:24:08;1.50;;;1.27;;
18174;SDS011;9212;50.894;16.714;2023-08-08T05:26:37;2.00;;;1.50;;
18174;SDS011;9212;50.894;16.714;2023-08-08T05:29:04;4.00;;;1.50;;
18174;SDS011;9212;50.894;16.714;2023-08-08T05:31:31;1.55;;;1.35;;
18174;SDS011;9212;50.894;16.714;2023-08-08T05:33:58;2.35;;;1.55;;
18174;SDS011;9212;50.894;16.714;2023-08-08T05:36:25;1.90;;;1.38;;
18174;SDS011;9212;50.894;16.714;2023-08-08T05:38:52;2.67;;;1.75;;
18174;SDS011;9212;50.894;16.714;2023-08-08T05:41:20;1.65;;;1.52;;
18174;SDS011;9212;50.894;16.714;2023-08-08T05:43:48;3.10;;;1.70;;
18174;SDS011;9212;50.894;16.714;2023-08-08T05:46:16;1.60;;;1.50;;
18174;SDS011;9212;50.894;16.714;2023-08-08T05:48:44;4.05;;;1.58;;
18174;SDS011;9212;50.894;16.714;2023-08-08T05:51:11;2.45;;;1.42;;
18174;SDS011;9212;50.894;16.714;2023-08-08T05:53:39;1.40;;;1.30;;
18174;SDS011;9212;50.894;16.714;2023-08-08T05:56:06;2.83;;;1.88;;
18174;SDS011;9212;50.894;16.714;2023-08-08T05:58:34;2.78;;;1.58;;
18174;SDS011;9212;50.894;16.714;2023-08-08T06:01:03;5.07;;;1.77;;
18174;SDS011;9212;50.894;16.714;2023-08-08T06:03:31;1.50;;;1.40;;
18174;SDS011;9212;50.894;16.714;2023-08-08T06:05:58;4.10;;;1.80;;
18174;SDS011;9212;50.894;16.714;2023-08-08T06:08:25;5.00;;;1.60;;
18174;SDS011;9212;50.894;16.714;2023-08-08T06:10:53;1.77;;;1.23;;
18174;SDS011;9212;50.894;16.714;2023-08-08T06:13:20;3.03;;;1.77;;
18174;SDS011;9212;50.894;16.714;2023-08-08T06:15:47;2.63;;;1.80;;
18174;SDS011;9212;50.894;16.714;2023-08-08T06:18:16;6.60;;;1.58;;
18174;SDS011;9212;50.894;16.714;2023-08-08T06:20:43;1.92;;;1.63;;
18174;SDS011;9212;50.894;16.714;2023-08-08T06:23:10;2.95;;;1.33;;
18174;SDS011;9212;50.894;16.714;2023-08-08T06:25:38;3.00;;;1.70;;
18174;SDS011;9212;50.894;16.714;2023-08-08T06:28:05;1.20;;;1.10;;
18174;SDS011;9212;50.894;16.714;2023-08-08T06:30:32;1.30;;;1.20;;
18174;SDS011;9212;50.894;16.714;2023-08-08T06:33:00;3.40;;;1.30;;
18174;SDS011;9212;50.894;16.714;2023-08-08T06:35:28;1.45;;;1.17;;
18174;SDS011;9212;50.894;16.714;2023-08-08T06:37:55;3.30;;;1.30;;
18174;SDS011;9212;50.894;16.714;2023-08-08T06:40:23;3.67;;;1.50;;
18174;SDS011;9212;50.894;16.714;2023-08-08T06:42:50;5.60;;;1.58;;
18174;SDS011;9212;50.894;16.714;2023-08-08T06:45:18;1.30;;;1.20;;
18174;SDS011;9212;50.894;16.714;2023-08-08T06:47:46;3.78;;;1.33;;
18174;SDS011;9212;50.894;16.714;2023-08-08T06:50:13;3.17;;;1.30;;
18174;SDS011;9212;50.894;16.714;2023-08-08T06:52:42;1.75;;;1.15;;
18174;SDS011;9212;50.894;16.714;2023-08-08T06:55:09;1.38;;;1.05;;
18174;SDS011;9212;50.894;16.714;2023-08-08T06:57:36;4.03;;;0.98;;
18174;SDS011;9212;50.894;16.714;2023-08-08T07:00:04;1.20;;;1.17;;
18174;SDS011;9212;50.894;16.714;2023-08-08T07:02:33;0.65;;;0.65;;
18174;SDS011;9212;50.894;16.714;2023-08-08T07:05:01;2.42;;;0.88;;
18174;SDS011;9212;50.894;16.714;2023-08-08T07:07:28;1.35;;;0.73;;
18174;SDS011;9212;50.894;16.714;2023-08-08T07:09:59;1.42;;;0.70;;
18174;SDS011;9212;50.894;16.714;2023-08-08T07:12:26;0.68;;;0.68;;
18174;SDS011;9212;50.894;16.714;2023-08-08T07:14:53;1.20;;;1.10;;
18174;SDS011;9212;50.894;16.714;2023-08-08T07:17:21;1.00;;;0.80;;
18174;SDS011;9212;50.894;16.714;2023-08-08T07:19:48;2.03;;;0.85;;
18174;SDS011;9212;50.894;16.714;2023-08-08T07:22:15;1.77;;;0.80;;
18174;SDS011;9212;50.894;16.714;2023-08-08T07:24:42;0.88;;;0.60;;
18174;SDS011;9212;50.894;16.714;2023-08-08T07:27:11;0.52;;;0.52;;
18174;SDS011;9212;50.894;16.714;2023-08-08T07:29:38;0.60;;;0.57;;
18174;SDS011;9212;50.894;16.714;2023-08-08T07:32:05;2.08;;;0.80;;
18174;SDS011;9212;50.894;16.714;2023-08-08T07:34:33;0.73;;;0.70;;
18174;SDS011;9212;50.894;16.714;2023-08-08T07:37:00;0.73;;;0.60;;
18174;SDS011;9212;50.894;16.714;2023-08-08T07:39:28;0.80;;;0.80;;
18174;SDS011;9212;50.894;16.714;2023-08-08T07:41:55;0.77;;;0.77;;
18174;SDS011;9212;50.894;16.714;2023-08-08T07:44:23;0.88;;;0.88;;
18174;SDS011;9212;50.894;16.714;2023-08-08T07:46:51;0.90;;;0.90;;
18174;SDS011;9212;50.894;16.714;2023-08-08T07:49:18;0.95;;;0.95;;
18174;SDS011;9212;50.894;16.714;2023-08-08T07:51:45;0.80;;;0.80;;
18174;SDS011;9212;50.894;16.714;2023-08-08T07:54:12;2.05;;;1.00;;
18174;SDS011;9212;50.894;16.714;2023-08-08T07:56:42;1.05;;;1.00;;
18174;SDS011;9212;50.894;16.714;2023-08-08T07:59:08;2.88;;;0.98;;
18174;SDS011;9212;50.894;16.714;2023-08-08T08:01:37;1.38;;;0.82;;
18174;SDS011;9212;50.894;16.714;2023-08-08T08:04:04;2.35;;;1.02;;
18174;SDS011;9212;50.894;16.714;2023-08-08T08:06:31;0.90;;;0.75;;
18174;SDS011;9212;50.894;16.714;2023-08-08T08:08:59;1.52;;;1.02;;
18174;SDS011;9212;50.894;16.714;2023-08-08T08:11:26;7.07;;;1.00;;
18174;SDS011;9212;50.894;16.714;2023-08-08T08:13:53;1.15;;;1.05;;
18174;SDS011;9212;50.894;16.714;2023-08-08T08:16:20;0.85;;;0.82;;
18174;SDS011;9212;50.894;16.714;2023-08-08T08:18:49;0.80;;;0.80;;
18174;SDS011;9212;50.894;16.714;2023-08-08T08:21:16;0.73;;;0.73;;
18174;SDS011;9212;50.894;16.714;2023-08-08T08:23:43;1.38;;;0.77;;
18174;SDS011;9212;50.894;16.714;2023-08-08T08:26:11;3.80;;;0.90;;
18174;SDS011;9212;50.894;16.714;2023-08-08T08:28:38;2.33;;;0.80;;
18174;SDS011;9212;50.894;16.714;2023-08-08T08:31:06;1.67;;;1.13;;
18174;SDS011;9212;50.894;16.714;2023-08-08T08:33:34;1.10;;;1.00;;
18174;SDS011;9212;50.894;16.714;2023-08-08T08:36:02;2.20;;;1.00;;
18174;SDS011;9212;50.894;16.714;2023-08-08T08:38:30;1.30;;;1.10;;
18174;SDS011;9212;50.894;16.714;2023-08-08T08:40:57;2.30;;;1.20;;
18174;SDS011;9212;50.894;16.714;2023-08-08T08:43:25;1.20;;;1.10;;
18174;SDS011;9212;50.894;16.714;2023-08-08T08:45:53;1.52;;;1.10;;
18174;SDS011;9212;50.894;16.714;2023-08-08T08:48:20;1.02;;;1.02;;
18174;SDS011;9212;50.894;16.714;2023-08-08T08:50:48;1.58;;;1.10;;
18174;SDS011;9212;50.894;16.714;2023-08-08T08:53:17;1.70;;;1.17;;
18174;SDS011;9212;50.894;16.714;2023-08-08T08:55:44;1.23;;;1.02;;
18174;SDS011;9212;50.894;16.714;2023-08-08T08:58:13;1.95;;;1.30;;
18174;SDS011;9212;50.894;16.714;2023-08-08T09:00:43;1.10;;;1.00;;
18174;SDS011;9212;50.894;16.714;2023-08-08T09:03:17;4.55;;;1.23;;
18174;SDS011;9212;50.894;16.714;2023-08-08T09:06:02;3.92;;;1.15;;
18174;SDS011;9212;50.894;16.714;2023-08-08T09:08:38;1.00;;;1.00;;
18174;SDS011;9212;50.894;16.714;2023-08-08T09:11:30;1.15;;;1.10;;
18174;SDS011;9212;50.894;16.714;2023-08-08T09:14:41;1.33;;;1.00;;
18174;SDS011;9212;50.894;16.714;2023-08-08T09:17:22;0.90;;;0.90;;
18174;SDS011;9212;50.894;16.714;2023-08-08T09:20:01;0.98;;;0.95;;
18174;SDS011;9212;50.894;16.714;2023-08-08T09:22:57;1.15;;;1.05;;
18174;SDS011;9212;50.894;16.714;2023-08-08T09:31:38;1.85;;;1.30;;
18174;SDS011;9212;50.894;16.714;2023-08-08T09:34:06;2.42;;;0.90;;
18174;SDS011;9212;50.894;16.714;2023-08-08T09:36:52;1.10;;;1.00;;
18174;SDS011;9212;50.894;16.714;2023-08-08T09:42:13;1.63;;;1.10;;
18174;SDS011;9212;50.894;16.714;2023-08-08T09:44:42;0.98;;;0.90;;
18174;SDS011;9212;50.894;16.714;2023-08-08T09:47:29;1.00;;;1.00;;
18174;SDS011;9212;50.894;16.714;2023-08-08T09:50:01;2.35;;;1.00;;
18174;SDS011;9212;50.894;16.714;2023-08-08T09:52:31;1.83;;;0.90;;
18174;SDS011;9212;50.894;16.714;2023-08-08T09:55:04;1.13;;;1.02;;
18174;SDS011;9212;50.894;16.714;2023-08-08T09:57:37;0.98;;;0.98;;
18174;SDS011;9212;50.894;16.714;2023-08-08T10:00:07;1.10;;;1.02;;
18174;SDS011;9212;50.894;16.714;2023-08-08T10:02:42;2.58;;;1.20;;
18174;SDS011;9212;50.894;16.714;2023-08-08T10:05:20;1.27;;;1.13;;
18174;SDS011;9212;50.894;16.714;2023-08-08T10:07:49;1.35;;;1.20;;
18174;SDS011;9212;50.894;16.714;2023-08-08T10:10:39;0.85;;;0.85;;
18174;SDS011;9212;50.894;16.714;2023-08-08T10:13:26;1.70;;;1.20;;
18174;SDS011;9212;50.894;16.714;2023-08-08T10:15:54;0.93;;;0.93;;
18174;SDS011;9212;50.894;16.714;2023-08-08T10:18:41;1.90;;;1.10;;
18174;SDS011;9212;50.894;16.714;2023-08-08T10:21:24;1.25;;;1.15;;
18174;SDS011;9212;50.894;16.714;2023-08-08T10:24:01;2.17;;;0.95;;
18174;SDS011;9212;50.894;16.714;2023-08-08T10:26:53;2.60;;;1.08;;
18174;SDS011;9212;50.894;16.714;2023-08-08T10:29:37;1.27;;;1.20;;
18174;SDS011;9212;50.894;16.714;2023-08-08T10:32:08;5.20;;;1.60;;
18174;SDS011;9212;50.894;16.714;2023-08-08T10:34:38;3.40;;;1.40;;
18174;SDS011;9212;50.894;16.714;2023-08-08T10:37:08;2.45;;;1.10;;
18174;SDS011;9212;50.894;16.714;2023-08-08T10:39:36;1.58;;;1.13;;
18174;SDS011;9212;50.894;16.714;2023-08-08T10:42:04;1.30;;;1.02;;
18174;SDS011;9212;50.894;16.714;2023-08-08T10:44:39;1.30;;;1.00;;
18174;SDS011;9212;50.894;16.714;2023-08-08T10:47:07;1.27;;;0.95;;
18174;SDS011;9212;50.894;16.714;2023-08-08T10:49:35;1.30;;;1.20;;
18174;SDS011;9212;50.894;16.714;2023-08-08T10:52:04;3.08;;;1.40;;
18174;SDS011;9212;50.894;16.714;2023-08-08T10:54:31;1.40;;;1.30;;
18174;SDS011;9212;50.894;16.714;2023-08-08T10:56:59;1.65;;;1.40;;
18174;SDS011;9212;50.894;16.714;2023-08-08T10:59:26;1.73;;;1.20;;
18174;SDS011;9212;50.894;16.714;2023-08-08T11:02:00;3.30;;;1.50;;
18174;SDS011;9212;50.894;16.714;2023-08-08T11:04:28;1.17;;;1.08;;
18174;SDS011;9212;50.894;16.714;2023-08-08T11:06:57;2.10;;;1.58;;
18174;SDS011;9212;50.894;16.714;2023-08-08T11:09:26;1.63;;;1.15;;
18174;SDS011;9212;50.894;16.714;2023-08-08T11:11:54;1.65;;;0.93;;
18174;SDS011;9212;50.894;16.714;2023-08-08T11:14:22;1.38;;;1.27;;
18174;SDS011;9212;50.894;16.714;2023-08-08T11:16:50;1.27;;;1.10;;
18174;SDS011;9212;50.894;16.714;2023-08-08T11:19:18;1.05;;;1.00;;
18174;SDS011;9212;50.894;16.714;2023-08-08T11:21:46;2.58;;;1.25;;
18174;SDS011;9212;50.894;16.714;2023-08-08T11:24:15;1.13;;;1.08;;
18174;SDS011;9212;50.894;16.714;2023-08-08T11:26:58;2.78;;;1.60;;
18174;SDS011;9212;50.894;16.714;2023-08-08T11:29:27;1.40;;;1.10;;
18174;SDS011;9212;50.894;16.714;2023-08-08T11:32:04;1.20;;;1.15;;
18174;SDS011;9212;50.894;16.714;2023-08-08T11:34:50;1.17;;;1.00;;
18174;SDS011;9212;50.894;16.714;2023-08-08T11:37:17;1.00;;;1.00;;
18174;SDS011;9212;50.894;16.714;2023-08-08T11:39:45;2.08;;;1.10;;
18174;SDS011;9212;50.894;16.714;2023-08-08T11:42:14;2.33;;;1.42;;
18174;SDS011;9212;50.894;16.714;2023-08-08T11:44:50;2.50;;;1.15;;
18174;SDS011;9212;50.894;16.714;2023-08-08T11:47:33;1.58;;;1.00;;
18174;SDS011;9212;50.894;16.714;2023-08-08T11:50:21;2.67;;;1.55;;
18174;SDS011;9212;50.894;16.714;2023-08-08T11:53:06;2.70;;;1.27;;
18174;SDS011;9212;50.894;16.714;2023-08-08T11:55:33;1.00;;;1.00;;
18174;SDS011;9212;50.894;16.714;2023-08-08T11:58:01;3.05;;;0.98;;
18174;SDS011;9212;50.894;16.714;2023-08-08T12:00:33;1.70;;;1.30;;
18174;SDS011;9212;50.894;16.714;2023-08-08T12:03:03;5.00;;;1.27;;
18174;SDS011;9212;50.894;16.714;2023-08-08T12:05:35;1.40;;;1.20;;
18174;SDS011;9212;50.894;16.714;2023-08-08T12:08:04;1.60;;;1.13;;
18174;SDS011;9212;50.894;16.714;2023-08-08T12:10:31;1.52;;;1.38;;
18174;SDS011;9212;50.894;16.714;2023-08-08T12:13:03;1.70;;;1.08;;
18174;SDS011;9212;50.894;16.714;2023-08-08T12:15:35;1.10;;;1.00;;
18174;SDS011;9212;50.894;16.714;2023-08-08T12:18:03;1.85;;;1.30;;
18174;SDS011;9212;50.894;16.714;2023-08-08T12:20:33;1.30;;;1.10;;
18174;SDS011;9212;50.894;16.714;2023-08-08T12:23:00;5.00;;;1.30;;
18174;SDS011;9212;50.894;16.714;2023-08-08T12:25:29;2.00;;;1.27;;
18174;SDS011;9212;50.894;16.714;2023-08-08T12:27:56;1.00;;;0.93;;
18174;SDS011;9212;50.894;16.714;2023-08-08T12:30:25;2.35;;;1.23;;
18174;SDS011;9212;50.894;16.714;2023-08-08T12:32:53;1.83;;;1.30;;
18174;SDS011;9212;50.894;16.714;2023-08-08T12:35:21;1.67;;;1.40;;
18174;SDS011;9212;50.894;16.714;2023-08-08T12:37:48;0.82;;;0.82;;
18174;SDS011;9212;50.894;16.714;2023-08-08T12:40:15;1.95;;;1.23;;
18174;SDS011;9212;50.894;16.714;2023-08-08T12:42:43;1.80;;;1.02;;
18174;SDS011;9212;50.894;16.714;2023-08-08T12:45:10;2.03;;;1.35;;
18174;SDS011;9212;50.894;16.714;2023-08-08T12:47:39;1.55;;;1.10;;
18174;SDS011;9212;50.894;16.714;2023-08-08T12:50:06;2.13;;;1.30;;
18174;SDS011;9212;50.894;16.714;2023-08-08T12:52:34;3.65;;;1.30;;
18174;SDS011;9212;50.894;16.714;2023-08-08T12:55:03;2.45;;;1.13;;
18174;SDS011;9212;50.894;16.714;2023-08-08T12:57:30;2.42;;;1.42;;
18174;SDS011;9212;50.894;16.714;2023-08-08T12:59:58;1.48;;;1.38;;
18174;SDS011;9212;50.894;16.714;2023-08-08T13:02:26;2.28;;;0.82;;
18174;SDS011;9212;50.894;16.714;2023-08-08T13:04:54;1.92;;;1.27;;
18174;SDS011;9212;50.894;16.714;2023-08-08T13:07:23;2.08;;;1.27;;
18174;SDS011;9212;50.894;16.714;2023-08-08T13:09:51;1.25;;;1.05;;
18174;SDS011;9212;50.894;16.714;2023-08-08T13:12:18;1.85;;;1.08;;
18174;SDS011;9212;50.894;16.714;2023-08-08T13:14:46;1.30;;;1.05;;
18174;SDS011;9212;50.894;16.714;2023-08-08T13:17:14;2.78;;;1.20;;
18174;SDS011;9212;50.894;16.714;2023-08-08T13:19:41;1.65;;;1.40;;
18174;SDS011;9212;50.894;16.714;2023-08-08T13:22:10;2.88;;;1.40;;
18174;SDS011;9212;50.894;16.714;2023-08-08T13:24:37;4.72;;;1.30;;
18174;SDS011;9212;50.894;16.714;2023-08-08T13:27:05;1.67;;;1.10;;
18174;SDS011;9212;50.894;16.714;2023-08-08T13:29:35;2.00;;;1.10;;
18174;SDS011;9212;50.894;16.714;2023-08-08T13:32:07;2.85;;;1.00;;
18174;SDS011;9212;50.894;16.714;2023-08-08T13:34:34;1.55;;;1.30;;
18174;SDS011;9212;50.894;16.714;2023-08-08T13:37:02;3.33;;;1.33;;
18174;SDS011;9212;50.894;16.714;2023-08-08T13:39:31;1.17;;;1.08;;
18174;SDS011;9212;50.894;16.714;2023-08-08T13:41:59;4.18;;;1.50;;
18174;SDS011;9212;50.894;16.714;2023-08-08T13:44:26;1.35;;;1.05;;
18174;SDS011;9212;50.894;16.714;2023-08-08T13:46:53;2.47;;;1.40;;
18174;SDS011;9212;50.894;16.714;2023-08-08T13:49:23;1.20;;;1.10;;
18174;SDS011;9212;50.894;16.714;2023-08-08T13:51:51;4.15;;;1.30;;
18174;SDS011;9212;50.894;16.714;2023-08-08T13:54:19;1.85;;;1.27;;
18174;SDS011;9212;50.894;16.714;2023-08-08T13:56:47;1.33;;;1.13;;
18174;SDS011;9212;50.894;16.714;2023-08-08T13:59:17;2.45;;;1.38;;
18174;SDS011;9212;50.894;16.714;2023-08-08T14:01:44;2.00;;;1.40;;
18174;SDS011;9212;50.894;16.714;2023-08-08T14:04:11;1.40;;;1.30;;
18174;SDS011;9212;50.894;16.714;2023-08-08T14:06:38;1.45;;;1.20;;
18174;SDS011;9212;50.894;16.714;2023-08-08T14:09:06;2.50;;;1.20;;
18174;SDS011;9212;50.894;16.714;2023-08-08T14:11:33;1.15;;;1.08;;
18174;SDS011;9212;50.894;16.714;2023-08-08T14:14:02;3.95;;;1.45;;
18174;SDS011;9212;50.894;16.714;2023-08-08T14:16:29;1.30;;;1.08;;
18174;SDS011;9212;50.894;16.714;2023-08-08T14:18:57;2.90;;;1.10;;
18174;SDS011;9212;50.894;16.714;2023-08-08T14:21:24;1.08;;;0.95;;
18174;SDS011;9212;50.894;16.714;2023-08-08T14:23:51;2.00;;;1.00;;
18174;SDS011;9212;50.894;16.714;2023-08-08T14:26:19;2.45;;;1.25;;
18174;SDS011;9212;50.894;16.714;2023-08-08T14:28:46;3.83;;;1.10;;
18174;SDS011;9212;50.894;16.714;2023-08-08T14:31:15;1.48;;;1.00;;
18174;SDS011;9212;50.894;16.714;2023-08-08T14:33:42;2.45;;;1.30;;
18174;SDS011;9212;50.894;16.714;2023-08-08T14:36:12;1.92;;;1.50;;
18174;SDS011;9212;50.894;16.714;2023-08-08T14:38:39;3.67;;;1.60;;
18174;SDS011;9212;50.894;16.714;2023-08-08T14:41:06;2.55;;;1.00;;
18174;SDS011;9212;50.894;16.714;2023-08-08T14:43:34;1.33;;;1.20;;
18174;SDS011;9212;50.894;16.714;2023-08-08T14:46:01;2.20;;;1.30;;
18174;SDS011;9212;50.894;16.714;2023-08-08T14:48:30;1.65;;;1.38;;
18174;SDS011;9212;50.894;16.714;2023-08-08T14:50:57;1.25;;;1.15;;
18174;SDS011;9212;50.894;16.714;2023-08-08T14:53:24;1.13;;;1.00;;
18174;SDS011;9212;50.894;16.714;2023-08-08T14:55:51;1.55;;;1.15;;
18174;SDS011;9212;50.894;16.714;2023-08-08T14:58:19;1.52;;;1.08;;
18174;SDS011;9212;50.894;16.714;2023-08-08T15:00:46;3.42;;;1.30;;
18174;SDS011;9212;50.894;16.714;2023-08-08T15:03:13;1.40;;;1.30;;
18174;SDS011;9212;50.894;16.714;2023-08-08T15:05:43;2.17;;;1.20;;
18174;SDS011;9212;50.894;16.714;2023-08-08T15:08:11;1.50;;;1.27;;